CYED/YED METAR and TAF weather

Enter ICAO airport designator
Station Type Date Time Source
CYED METAR 2021/05/12 04:00 UTC NOAA

CYED 120400Z AUTO 00000KT 9SM CLR 05/02 A3015 RMK SLP228


Station Type Date Time Source
CYED Decoded METAR 2021/05/12 04:00 UTC NOAA

Edmonton Namao Alta., Canada (CYED) 53-40N 113-28W 688M
May 12, 2021 - 12:00 AM EDT / 2021.05.12 0400 UTC
Wind: Calm:0
Visibility: 9 mile(s):0
Sky conditions: clear
Temperature: 41 F (5 C)
Dew Point: 35 F (2 C)
Relative Humidity: 80%
Pressure (altimeter): 30.15 in. Hg (1020 hPa)
ob: CYED 120400Z AUTO 00000KT 9SM CLR 05/02 A3015 RMK SLP228
cycle: 4

Station Type Date Time Source
CYED TAF 2021/05/11 18:33 UTC NOAA

TAF CYED 111730Z 1118/1206 33008KT P6SM FEW100
TEMPO 1118/1203 P6SM -SHRA OVC060 PROB30 1119/1202 VRB15G25KT 2SM TSRA BR BKN030CB OVC060
FM120300 VRB03KT P6SM SCT050
RMK FCST BASED ON AUTO OBS NXT FCST BY 120000Z

Example: see airport list